createdAt,value
2023-02-27T00:04:35.785Z,4.00
2023-02-27T00:07:28.873Z,4.30
2023-02-27T00:10:22.107Z,4.90
2023-02-27T00:13:14.501Z,3.30
2023-02-27T00:19:01.259Z,3.50
2023-02-27T00:21:46.549Z,4.70
2023-02-27T00:24:38.905Z,3.70
2023-02-27T00:27:21.015Z,4.20
2023-02-27T00:30:15.691Z,4.30
2023-02-27T00:33:10.201Z,4.30
2023-02-27T00:35:59.824Z,4.20
2023-02-27T00:38:43.765Z,5.40
2023-02-27T00:41:27.265Z,4.50
2023-02-27T00:44:20.051Z,4.70
2023-02-27T00:47:03.523Z,4.30
2023-02-27T00:52:35.793Z,3.20
2023-02-27T00:55:28.171Z,4.40
2023-02-27T01:01:01.761Z,2.90
2023-02-27T01:03:54.117Z,3.00
2023-02-27T01:09:37.651Z,2.90
2023-02-27T01:15:19.413Z,3.10
2023-02-27T01:18:11.668Z,5.60
2023-02-27T01:21:03.994Z,4.20
2023-02-27T01:23:56.328Z,6.30
2023-02-27T01:26:48.789Z,5.80
2023-02-27T01:32:25.769Z,9.40
2023-02-27T01:35:16.716Z,4.00
2023-02-27T01:38:09.276Z,7.00
2023-02-27T01:40:46.327Z,8.00
2023-02-27T01:43:57.527Z,5.10
2023-02-27T01:46:43.558Z,6.00
2023-02-27T01:49:37.240Z,7.10
2023-02-27T01:52:23.112Z,7.50
2023-02-27T01:55:16.936Z,6.60
2023-02-27T01:58:03.083Z,2.90
2023-02-27T02:00:42.968Z,3.80
2023-02-27T02:03:26.773Z,3.30
2023-02-27T02:06:06.245Z,3.10
2023-02-27T02:08:54.481Z,1.90
2023-02-27T02:11:46.906Z,2.50
2023-02-27T02:14:24.128Z,4.10
2023-02-27T02:17:23.540Z,4.50
2023-02-27T02:20:48.715Z,4.90
2023-02-27T02:24:14.371Z,3.50
2023-02-27T02:27:24.398Z,5.90
2023-02-27T02:30:51.976Z,4.30
2023-02-27T02:33:58.241Z,5.00
2023-02-27T02:37:35.327Z,4.90
2023-02-27T02:43:39.318Z,4.10
2023-02-27T02:46:17.026Z,5.60
2023-02-27T02:49:04.901Z,4.00
2023-02-27T02:51:54.525Z,5.40
2023-02-27T02:54:43.162Z,5.30
2023-02-27T02:57:20.787Z,12.20
2023-02-27T03:00:01.733Z,10.00
2023-02-27T03:02:43.587Z,7.00
2023-02-27T03:05:27.383Z,5.00
2023-02-27T03:08:09.096Z,5.50
2023-02-27T03:10:47.402Z,4.70
2023-02-27T03:13:23.463Z,2.30
2023-02-27T03:16:15.105Z,3.20
2023-02-27T03:18:55.469Z,7.60
2023-02-27T03:21:33.230Z,5.00
2023-02-27T03:24:23.674Z,5.80
2023-02-27T03:27:03.041Z,6.60
2023-02-27T03:29:45.823Z,8.00
2023-02-27T03:32:22.914Z,6.10
2023-02-27T03:34:55.252Z,4.30
2023-02-27T03:37:37.544Z,10.10
2023-02-27T03:40:25.073Z,6.10
2023-02-27T03:43:19.756Z,5.10
2023-02-27T03:46:03.153Z,4.40
2023-02-27T03:48:38.763Z,5.00
2023-02-27T03:51:11.057Z,4.20
2023-02-27T03:53:58.461Z,5.30
2023-02-27T03:56:46.000Z,4.60
2023-02-27T03:59:21.222Z,5.30
2023-02-27T04:01:58.283Z,4.90
2023-02-27T04:04:35.741Z,5.40
2023-02-27T04:07:46.432Z,3.80
2023-02-27T04:10:40.542Z,5.00
2023-02-27T04:13:53.584Z,3.40
2023-02-27T04:17:15.149Z,3.80
2023-02-27T04:20:38.464Z,3.10
2023-02-27T04:23:30.263Z,5.50
2023-02-27T04:26:21.540Z,3.50
2023-02-27T04:29:09.044Z,2.60
2023-02-27T04:31:51.039Z,3.80
2023-02-27T04:34:39.540Z,3.80
2023-02-27T04:37:23.806Z,3.50
2023-02-27T04:40:04.589Z,3.40
2023-02-27T04:42:55.038Z,6.40
2023-02-27T04:45:32.390Z,4.50
2023-02-27T04:48:19.800Z,5.60
2023-02-27T04:51:01.074Z,4.10
2023-02-27T04:53:42.999Z,3.40
2023-02-27T04:56:28.927Z,2.50
2023-02-27T04:59:16.766Z,3.20
2023-02-27T05:02:02.683Z,2.50
2023-02-27T05:04:58.040Z,3.20
2023-02-27T05:07:44.015Z,3.30
2023-02-27T05:10:41.883Z,4.00
2023-02-27T05:13:31.449Z,3.60
2023-02-27T05:16:10.824Z,3.90
2023-02-27T05:19:00.397Z,5.40
2023-02-27T05:21:55.135Z,3.60
2023-02-27T05:24:43.382Z,4.20
2023-02-27T05:27:34.685Z,4.40
2023-02-27T05:30:23.131Z,4.20
2023-02-27T05:33:03.406Z,4.60
2023-02-27T05:36:02.498Z,4.00
2023-02-27T05:38:58.601Z,4.80
2023-02-27T05:41:56.215Z,4.00
2023-02-27T05:44:56.373Z,5.00
2023-02-27T05:47:41.003Z,4.90
2023-02-27T05:50:22.740Z,4.30
2023-02-27T05:52:58.833Z,4.10
2023-02-27T05:55:44.059Z,3.90
2023-02-27T05:58:31.488Z,4.10
2023-02-27T06:01:09.171Z,5.20
2023-02-27T06:03:44.932Z,4.60
2023-02-27T06:06:38.272Z,4.80
2023-02-27T06:09:30.597Z,5.10
2023-02-27T06:12:22.823Z,5.10
2023-02-27T06:15:06.788Z,4.70
2023-02-27T06:17:59.246Z,4.10
2023-02-27T06:20:34.168Z,4.60
2023-02-27T06:26:14.354Z,3.80
2023-02-27T06:28:55.571Z,4.20
2023-02-27T06:31:30.489Z,6.10
2023-02-27T06:36:36.764Z,4.00
2023-02-27T06:42:09.968Z,2.80
2023-02-27T06:44:44.462Z,4.20
2023-02-27T06:50:17.752Z,4.30
2023-02-27T06:52:54.693Z,4.70
2023-02-27T06:55:39.480Z,5.30
2023-02-27T06:58:28.096Z,6.20
2023-02-27T07:01:20.588Z,5.20
2023-02-27T07:07:36.066Z,3.20
2023-02-27T07:09:57.815Z,5.10
2023-02-27T07:12:50.218Z,4.70
2023-02-27T07:15:27.044Z,5.40
2023-02-27T07:21:00.133Z,4.70
2023-02-27T07:23:52.743Z,5.30
2023-02-27T07:26:44.988Z,4.20
2023-02-27T07:29:37.553Z,6.40
2023-02-27T07:32:09.901Z,7.90
2023-02-27T07:37:35.909Z,6.40
2023-02-27T07:40:10.169Z,5.10
2023-02-27T07:42:44.946Z,5.50
2023-02-27T07:45:20.179Z,4.30
2023-02-27T07:48:00.128Z,5.70
2023-02-27T07:50:35.668Z,5.00
2023-02-27T07:53:08.541Z,4.30
2023-02-27T07:55:52.018Z,5.70
2023-02-27T07:58:29.168Z,5.40
2023-02-27T08:01:05.062Z,4.60
2023-02-27T08:03:39.864Z,4.80
2023-02-27T08:06:17.056Z,3.90
2023-02-27T08:08:52.115Z,4.10
2023-02-27T08:11:36.038Z,6.50
2023-02-27T08:14:11.886Z,4.10
2023-02-27T08:17:04.212Z,5.00
2023-02-27T08:19:39.658Z,4.10
2023-02-27T08:22:12.485Z,3.00
2023-02-27T08:24:45.124Z,4.10
2023-02-27T08:27:20.315Z,4.00
2023-02-27T08:29:55.748Z,4.70
2023-02-27T08:32:31.580Z,5.80
2023-02-27T08:37:57.257Z,5.40
2023-02-27T08:40:32.702Z,5.10
2023-02-27T08:43:07.610Z,6.10
2023-02-27T08:45:42.551Z,5.80
2023-02-27T08:48:26.098Z,5.40
2023-02-27T08:51:01.366Z,5.40
2023-02-27T08:53:44.448Z,5.50
2023-02-27T08:56:16.586Z,5.90
2023-02-27T08:58:48.846Z,5.40
2023-02-27T09:01:27.474Z,5.90
2023-02-27T09:04:21.097Z,4.50
2023-02-27T09:06:58.627Z,4.30
2023-02-27T09:09:45.236Z,5.50
2023-02-27T09:12:26.619Z,6.20
2023-02-27T09:15:01.790Z,5.60
2023-02-27T09:17:56.550Z,5.00
2023-02-27T09:20:49.751Z,3.90
2023-02-27T09:23:42.867Z,5.60
2023-02-27T09:26:18.225Z,5.10
2023-02-27T09:28:50.750Z,5.60
2023-02-27T09:31:34.522Z,5.40
2023-02-27T09:34:27.147Z,6.40
2023-02-27T09:37:03.478Z,5.20
2023-02-27T09:39:38.077Z,4.30
2023-02-27T09:44:54.435Z,4.30
2023-02-27T09:47:36.000Z,5.20
2023-02-27T09:53:05.464Z,4.70
2023-02-27T09:55:43.065Z,5.10
2023-02-27T09:58:39.302Z,4.10
2023-02-27T10:01:17.867Z,5.10
2023-02-27T10:04:21.214Z,5.10
2023-02-27T10:07:04.743Z,3.70
2023-02-27T10:09:48.754Z,4.80
2023-02-27T10:12:36.205Z,4.10
2023-02-27T10:15:26.586Z,4.70
2023-02-27T10:18:26.096Z,5.50
2023-02-27T10:21:08.273Z,5.10
2023-02-27T10:23:53.374Z,4.40
2023-02-27T10:26:32.553Z,4.10
2023-02-27T10:29:29.824Z,3.90
2023-02-27T10:32:18.785Z,4.50
2023-02-27T10:34:56.562Z,4.40
2023-02-27T10:37:37.145Z,4.70
2023-02-27T10:40:20.624Z,4.50
2023-02-27T10:43:08.082Z,5.10
2023-02-27T10:45:51.638Z,5.20
2023-02-27T10:48:35.884Z,4.10
2023-02-27T10:51:27.238Z,4.00
2023-02-27T10:54:23.669Z,3.20
2023-02-27T10:57:08.189Z,3.80
2023-02-27T10:59:43.270Z,4.30
2023-02-27T11:02:27.636Z,3.70
2023-02-27T11:05:25.352Z,3.80
2023-02-27T11:08:11.614Z,4.90
2023-02-27T11:10:58.971Z,3.80
2023-02-27T11:13:45.784Z,4.40
2023-02-27T11:16:20.929Z,4.20
2023-02-27T11:18:54.780Z,4.10
2023-02-27T11:21:30.181Z,4.90
2023-02-27T11:24:06.500Z,5.20
2023-02-27T11:26:55.219Z,54.40
2023-02-27T11:29:29.820Z,100.00
2023-02-27T11:32:15.148Z,5.00
2023-02-27T11:35:00.820Z,5.40
2023-02-27T11:37:38.005Z,4.60
2023-02-27T11:40:21.343Z,4.40
2023-02-27T11:43:03.301Z,4.10
2023-02-27T11:46:13.251Z,4.60
2023-02-27T11:48:36.313Z,10.70
2023-02-27T11:51:32.060Z,11.70
2023-02-27T11:54:37.181Z,16.90
2023-02-27T11:57:29.857Z,31.80
2023-02-27T12:00:22.004Z,23.30
2023-02-27T12:03:01.924Z,30.40
2023-02-27T12:05:39.409Z,10.10
2023-02-27T12:08:19.493Z,12.30
2023-02-27T12:11:14.195Z,8.90
2023-02-27T12:16:38.838Z,3.90
2023-02-27T12:19:21.979Z,2.40
2023-02-27T12:21:59.318Z,4.80
2023-02-27T12:24:42.533Z,7.20
2023-02-27T12:27:45.699Z,3.00
2023-02-27T12:30:25.256Z,3.00
2023-02-27T12:33:19.091Z,2.80
2023-02-27T12:36:00.526Z,2.30
2023-02-27T12:38:35.979Z,4.30
2023-02-27T12:41:28.478Z,1.90
2023-02-27T12:44:16.258Z,2.50
2023-02-27T12:46:54.162Z,2.10
2023-02-27T12:49:40.452Z,2.00
2023-02-27T12:52:22.715Z,2.30
2023-02-27T12:55:13.004Z,2.40
2023-02-27T12:58:13.123Z,3.10
2023-02-27T13:00:50.565Z,2.90
2023-02-27T13:03:30.319Z,2.70
2023-02-27T13:06:13.822Z,2.70
2023-02-27T13:09:04.870Z,2.10
2023-02-27T13:11:52.991Z,2.50
2023-02-27T13:14:47.698Z,2.40
2023-02-27T13:17:30.784Z,2.00
2023-02-27T13:20:18.461Z,2.70
2023-02-27T13:22:59.320Z,2.20
2023-02-27T13:25:37.400Z,2.30
2023-02-27T13:28:15.296Z,3.00
2023-02-27T13:30:54.012Z,2.10
2023-02-27T13:36:34.076Z,2.70
2023-02-27T13:39:41.150Z,2.70
2023-02-27T13:42:48.330Z,2.50
2023-02-27T13:45:50.657Z,3.10
2023-02-27T13:48:47.119Z,2.80
2023-02-27T13:51:59.840Z,2.40
2023-02-27T13:54:42.894Z,2.70
2023-02-27T13:57:32.689Z,2.10
2023-02-27T14:00:21.907Z,2.30
2023-02-27T14:03:00.735Z,2.60
2023-02-27T14:05:37.431Z,3.10
2023-02-27T14:08:20.662Z,3.00
2023-02-27T14:11:12.029Z,2.80
2023-02-27T14:14:06.712Z,4.20
2023-02-27T14:17:03.715Z,2.60
2023-02-27T14:19:59.676Z,3.10
2023-02-27T14:23:12.916Z,2.30
2023-02-27T14:25:51.978Z,15.80
2023-02-27T14:28:48.863Z,6.20
2023-02-27T14:31:27.249Z,8.60
2023-02-27T14:34:05.941Z,29.90
2023-02-27T14:36:47.078Z,4.90
2023-02-27T14:39:24.830Z,3.50
2023-02-27T14:42:08.815Z,2.60
2023-02-27T14:44:54.598Z,2.50
2023-02-27T14:47:38.769Z,3.00
2023-02-27T14:50:29.234Z,2.00
2023-02-27T14:53:02.592Z,2.10
2023-02-27T14:55:39.056Z,8.90
2023-02-27T14:58:27.451Z,152.50
2023-02-27T15:01:20.023Z,147.30
2023-02-27T15:04:20.573Z,41.70
2023-02-27T15:07:00.031Z,39.10
2023-02-27T15:09:55.164Z,66.20
2023-02-27T15:12:47.712Z,41.10
2023-02-27T15:15:22.695Z,28.60
2023-02-27T15:18:16.872Z,13.50
2023-02-27T15:21:03.956Z,94.90
2023-02-27T15:24:01.794Z,171.30
2023-02-27T15:26:47.884Z,79.60
2023-02-27T15:29:44.620Z,28.30
2023-02-27T15:32:26.765Z,26.40
2023-02-27T15:35:18.540Z,21.90
2023-02-27T15:38:01.741Z,11.80
2023-02-27T15:40:37.743Z,6.60
2023-02-27T15:43:11.190Z,13.10
2023-02-27T15:45:43.992Z,4.40
2023-02-27T15:48:20.215Z,9.20
2023-02-27T15:50:57.888Z,11.10
2023-02-27T15:53:34.198Z,4.10
2023-02-27T15:56:13.031Z,3.10
2023-02-27T15:59:00.212Z,4.60
2023-02-27T16:01:35.112Z,7.60
2023-02-27T16:04:20.576Z,4.50
2023-02-27T16:07:03.270Z,7.90
2023-02-27T16:09:55.076Z,4.20
2023-02-27T16:12:33.352Z,5.10
2023-02-27T16:15:28.376Z,3.70
2023-02-27T16:18:32.858Z,3.70
2023-02-27T16:21:18.079Z,3.80
2023-02-27T16:23:54.069Z,26.30
2023-02-27T16:26:32.533Z,13.10
2023-02-27T16:29:22.295Z,9.40
2023-02-27T16:32:06.832Z,7.60
2023-02-27T16:34:45.446Z,14.80
2023-02-27T16:37:24.268Z,31.20
2023-02-27T16:39:56.461Z,17.80
2023-02-27T16:45:18.058Z,6.70
2023-02-27T16:48:11.103Z,4.50
2023-02-27T16:50:44.095Z,4.90
2023-02-27T16:53:26.001Z,3.70
2023-02-27T16:55:58.236Z,3.90
2023-02-27T16:58:51.063Z,3.70
2023-02-27T17:04:13.533Z,12.40
2023-02-27T17:06:57.047Z,6.20
2023-02-27T17:09:33.172Z,4.80
2023-02-27T17:12:08.795Z,4.20
2023-02-27T17:14:51.167Z,4.50
2023-02-27T17:17:33.322Z,4.10
2023-02-27T17:20:07.430Z,5.20
2023-02-27T17:22:44.739Z,5.10
2023-02-27T17:25:30.090Z,6.20
2023-02-27T17:28:11.647Z,5.60
2023-02-27T17:30:47.332Z,43.50
2023-02-27T17:33:20.422Z,21.30
2023-02-27T17:36:04.134Z,20.60
2023-02-27T17:38:48.134Z,8.00
2023-02-27T17:41:24.512Z,5.50
2023-02-27T17:44:01.904Z,5.80
2023-02-27T17:46:37.515Z,6.20
2023-02-27T17:49:10.104Z,6.20
2023-02-27T17:51:53.394Z,5.00
2023-02-27T17:54:25.974Z,5.90
2023-02-27T17:57:10.565Z,6.40
2023-02-27T17:59:45.988Z,5.10
2023-02-27T18:02:28.803Z,5.70
2023-02-27T18:05:07.084Z,5.70
2023-02-27T18:07:39.403Z,6.60
2023-02-27T18:10:22.133Z,5.30
2023-02-27T18:12:56.812Z,5.30
2023-02-27T18:18:13.016Z,5.50
2023-02-27T18:20:47.913Z,5.10
2023-02-27T18:26:03.504Z,4.80
2023-02-27T18:28:38.831Z,5.20
2023-02-27T18:31:22.816Z,4.10
2023-02-27T18:34:08.944Z,3.40
2023-02-27T18:36:55.179Z,4.30
2023-02-27T18:39:36.047Z,4.40
2023-02-27T18:42:19.648Z,3.80
2023-02-27T18:45:07.233Z,4.00
2023-02-27T18:47:43.241Z,3.20
2023-02-27T18:50:17.434Z,4.50
2023-02-27T18:53:09.625Z,4.60
2023-02-27T18:56:06.013Z,4.20
2023-02-27T18:59:05.263Z,3.80
2023-02-27T19:01:47.300Z,3.90
2023-02-27T19:04:35.980Z,3.90
2023-02-27T19:07:10.833Z,4.10
2023-02-27T19:10:03.222Z,3.70
2023-02-27T19:12:38.443Z,3.80
2023-02-27T19:15:14.452Z,4.10
2023-02-27T19:18:07.884Z,4.30
2023-02-27T19:20:49.707Z,4.10
2023-02-27T19:26:46.112Z,4.70
2023-02-27T19:29:21.979Z,4.60
2023-02-27T19:31:58.129Z,5.80
2023-02-27T19:34:40.966Z,4.80
2023-02-27T19:37:26.128Z,4.10
2023-02-27T19:40:18.490Z,4.70
2023-02-27T19:43:04.978Z,4.10
2023-02-27T19:45:58.985Z,4.20
2023-02-27T19:48:37.204Z,4.60
2023-02-27T19:51:12.494Z,5.00
2023-02-27T19:53:54.467Z,5.10
2023-02-27T19:56:40.567Z,5.00
2023-02-27T19:59:24.843Z,4.60
2023-02-27T20:02:01.048Z,4.90
2023-02-27T20:04:44.666Z,5.60
2023-02-27T20:07:19.768Z,5.40
2023-02-27T20:10:14.051Z,5.00
2023-02-27T20:12:49.060Z,5.70
2023-02-27T20:15:21.889Z,5.80
2023-02-27T20:18:03.360Z,6.00
2023-02-27T20:20:40.041Z,5.90
2023-02-27T20:23:21.180Z,6.40
2023-02-27T20:26:20.018Z,5.10
2023-02-27T20:29:12.482Z,5.10
2023-02-27T20:31:52.814Z,6.10
2023-02-27T20:34:30.230Z,6.10
2023-02-27T20:37:11.124Z,5.70
2023-02-27T20:40:12.891Z,5.30
2023-02-27T20:42:48.299Z,6.10
2023-02-27T20:45:38.937Z,6.20
2023-02-27T20:48:13.218Z,5.00
2023-02-27T20:51:04.880Z,6.50
2023-02-27T20:53:39.538Z,6.20
2023-02-27T20:56:27.008Z,9.60
2023-02-27T20:59:13.158Z,33.10
2023-02-27T21:01:51.592Z,16.00
2023-02-27T21:04:42.756Z,9.70
2023-02-27T21:07:22.622Z,7.60
2023-02-27T21:10:03.924Z,7.50
2023-02-27T21:12:38.880Z,6.80
2023-02-27T21:15:22.605Z,7.10
2023-02-27T21:17:57.910Z,6.40
2023-02-27T21:20:33.749Z,7.10
2023-02-27T21:23:28.059Z,6.10
2023-02-27T21:28:33.772Z,7.30
2023-02-27T21:31:09.807Z,6.90
2023-02-27T21:33:45.183Z,8.10
2023-02-27T21:39:16.632Z,8.70
2023-02-27T21:41:52.144Z,8.10
2023-02-27T21:44:32.010Z,8.50
2023-02-27T21:47:13.128Z,8.20
2023-02-27T21:49:54.516Z,6.80
2023-02-27T21:52:31.498Z,7.40
2023-02-27T21:55:16.263Z,8.00
2023-02-27T21:57:51.492Z,7.90
2023-02-27T22:00:33.625Z,7.70
2023-02-27T22:03:06.391Z,7.80
2023-02-27T22:05:49.797Z,8.60
2023-02-27T22:08:25.018Z,8.20
2023-02-27T22:11:17.646Z,7.90
2023-02-27T22:14:04.350Z,7.30
2023-02-27T22:16:40.050Z,9.20
2023-02-27T22:19:23.462Z,7.90
2023-02-27T22:21:58.780Z,8.50
2023-02-27T22:27:35.597Z,8.60
2023-02-27T22:32:49.352Z,9.40
2023-02-27T22:35:29.272Z,8.90
2023-02-27T22:38:03.769Z,9.30
2023-02-27T22:40:43.445Z,11.20
2023-02-27T22:43:20.336Z,9.90
2023-02-27T22:45:56.043Z,10.30
2023-02-27T22:48:48.359Z,9.80
2023-02-27T22:51:24.814Z,10.20
2023-02-27T22:54:07.384Z,10.50
2023-02-27T22:56:43.127Z,9.70
2023-02-27T22:59:18.089Z,11.60
2023-02-27T23:01:54.148Z,10.70
2023-02-27T23:04:27.083Z,11.70
2023-02-27T23:07:01.965Z,18.50
2023-02-27T23:09:34.151Z,14.70
2023-02-27T23:12:06.870Z,14.10
2023-02-27T23:14:47.905Z,14.20
2023-02-27T23:17:22.609Z,12.80
2023-02-27T23:19:57.105Z,20.10
2023-02-27T23:22:33.512Z,13.90
2023-02-27T23:25:07.329Z,15.00
2023-02-27T23:27:50.144Z,14.90
2023-02-27T23:30:23.111Z,18.90
2023-02-27T23:32:55.616Z,18.10
2023-02-27T23:35:28.245Z,15.40
2023-02-27T23:38:01.765Z,14.50
2023-02-27T23:40:34.205Z,13.40
2023-02-27T23:43:26.228Z,11.70
2023-02-27T23:46:06.107Z,11.90
2023-02-27T23:48:41.615Z,11.10
2023-02-27T23:51:14.981Z,11.80
2023-02-27T23:53:47.418Z,10.00
2023-02-27T23:56:21.921Z,9.10
2023-02-27T23:58:59.048Z,7.70
